sensor_id;sensor_type;location;lat;lon;timestamp;P1;durP1;ratioP1;P2;durP2;ratioP2
13455;SDS011;6800;50.940;6.940;2022-08-05T00:01:57;4.25;;;2.80;;
13455;SDS011;6800;50.940;6.940;2022-08-05T00:05:57;4.15;;;2.70;;
13455;SDS011;6800;50.940;6.940;2022-08-05T00:09:57;4.07;;;2.80;;
13455;SDS011;6800;50.940;6.940;2022-08-05T00:13:58;4.95;;;2.53;;
13455;SDS011;6800;50.940;6.940;2022-08-05T00:17:58;3.75;;;2.72;;
13455;SDS011;6800;50.940;6.940;2022-08-05T00:21:58;5.07;;;3.25;;
13455;SDS011;6800;50.940;6.940;2022-08-05T00:25:59;3.88;;;3.00;;
13455;SDS011;6800;50.940;6.940;2022-08-05T00:29:59;6.15;;;3.33;;
13455;SDS011;6800;50.940;6.940;2022-08-05T00:33:59;4.10;;;3.28;;
13455;SDS011;6800;50.940;6.940;2022-08-05T00:38:00;6.00;;;3.10;;
13455;SDS011;6800;50.940;6.940;2022-08-05T00:42:00;5.13;;;3.60;;
13455;SDS011;6800;50.940;6.940;2022-08-05T00:46:01;6.15;;;3.53;;
13455;SDS011;6800;50.940;6.940;2022-08-05T00:50:01;5.22;;;3.65;;
13455;SDS011;6800;50.940;6.940;2022-08-05T00:54:02;7.07;;;3.58;;
13455;SDS011;6800;50.940;6.940;2022-08-05T00:58:02;5.95;;;3.55;;
13455;SDS011;6800;50.940;6.940;2022-08-05T01:02:03;8.30;;;3.58;;
13455;SDS011;6800;50.940;6.940;2022-08-05T01:06:04;7.38;;;3.85;;
13455;SDS011;6800;50.940;6.940;2022-08-05T01:10:05;5.28;;;2.85;;
13455;SDS011;6800;50.940;6.940;2022-08-05T01:18:35;4.63;;;3.10;;
13455;SDS011;6800;50.940;6.940;2022-08-05T01:22:42;6.43;;;3.22;;
13455;SDS011;6800;50.940;6.940;2022-08-05T01:31:31;5.20;;;3.30;;
13455;SDS011;6800;50.940;6.940;2022-08-05T01:35:38;4.97;;;2.83;;
13455;SDS011;6800;50.940;6.940;2022-08-05T01:39:42;4.55;;;2.63;;
13455;SDS011;6800;50.940;6.940;2022-08-05T01:43:45;4.93;;;2.88;;
13455;SDS011;6800;50.940;6.940;2022-08-05T01:47:48;5.90;;;2.90;;
13455;SDS011;6800;50.940;6.940;2022-08-05T01:51:49;6.60;;;3.20;;
13455;SDS011;6800;50.940;6.940;2022-08-05T01:55:55;4.80;;;3.17;;
13455;SDS011;6800;50.940;6.940;2022-08-05T01:59:59;5.22;;;3.30;;
13455;SDS011;6800;50.940;6.940;2022-08-05T02:04:02;6.45;;;4.22;;
13455;SDS011;6800;50.940;6.940;2022-08-05T02:08:04;5.60;;;3.75;;
13455;SDS011;6800;50.940;6.940;2022-08-05T02:12:25;4.47;;;3.60;;
13455;SDS011;6800;50.940;6.940;2022-08-05T02:16:33;6.68;;;3.95;;
13455;SDS011;6800;50.940;6.940;2022-08-05T02:21:24;6.43;;;5.25;;
13455;SDS011;6800;50.940;6.940;2022-08-05T02:25:24;8.07;;;5.40;;
13455;SDS011;6800;50.940;6.940;2022-08-05T02:29:27;12.02;;;7.20;;
13455;SDS011;6800;50.940;6.940;2022-08-05T02:33:28;11.55;;;7.60;;
13455;SDS011;6800;50.940;6.940;2022-08-05T02:37:31;9.73;;;8.77;;
13455;SDS011;6800;50.940;6.940;2022-08-05T02:41:33;13.88;;;10.70;;
13455;SDS011;6800;50.940;6.940;2022-08-05T02:45:34;19.10;;;12.23;;
13455;SDS011;6800;50.940;6.940;2022-08-05T02:49:39;15.32;;;12.80;;
13455;SDS011;6800;50.940;6.940;2022-08-05T02:53:41;17.63;;;12.88;;
13455;SDS011;6800;50.940;6.940;2022-08-05T02:57:42;16.75;;;14.43;;
13455;SDS011;6800;50.940;6.940;2022-08-05T03:01:44;16.20;;;14.23;;
13455;SDS011;6800;50.940;6.940;2022-08-05T03:05:49;19.90;;;16.95;;
13455;SDS011;6800;50.940;6.940;2022-08-05T03:09:51;19.40;;;17.35;;
13455;SDS011;6800;50.940;6.940;2022-08-05T03:13:52;20.88;;;18.77;;
13455;SDS011;6800;50.940;6.940;2022-08-05T03:17:53;26.23;;;23.67;;
13455;SDS011;6800;50.940;6.940;2022-08-05T03:21:54;26.58;;;23.85;;
13455;SDS011;6800;50.940;6.940;2022-08-05T03:25:54;26.25;;;22.92;;
13455;SDS011;6800;50.940;6.940;2022-08-05T03:29:55;26.35;;;23.52;;
13455;SDS011;6800;50.940;6.940;2022-08-05T03:33:55;28.10;;;24.05;;
13455;SDS011;6800;50.940;6.940;2022-08-05T03:37:57;25.85;;;23.10;;
13455;SDS011;6800;50.940;6.940;2022-08-05T03:41:58;23.70;;;21.30;;
13455;SDS011;6800;50.940;6.940;2022-08-05T03:45:59;25.10;;;22.52;;
13455;SDS011;6800;50.940;6.940;2022-08-05T03:49:59;24.58;;;22.02;;
13455;SDS011;6800;50.940;6.940;2022-08-05T03:54:07;26.77;;;23.20;;
13455;SDS011;6800;50.940;6.940;2022-08-05T03:58:15;26.40;;;23.60;;
13455;SDS011;6800;50.940;6.940;2022-08-05T04:02:17;26.88;;;23.48;;
13455;SDS011;6800;50.940;6.940;2022-08-05T04:06:19;27.30;;;24.13;;
13455;SDS011;6800;50.940;6.940;2022-08-05T04:10:19;28.77;;;25.42;;
13455;SDS011;6800;50.940;6.940;2022-08-05T04:14:20;29.00;;;25.02;;
13455;SDS011;6800;50.940;6.940;2022-08-05T04:18:23;31.33;;;27.23;;
13455;SDS011;6800;50.940;6.940;2022-08-05T04:22:24;30.17;;;27.02;;
13455;SDS011;6800;50.940;6.940;2022-08-05T04:26:24;34.05;;;27.73;;
13455;SDS011;6800;50.940;6.940;2022-08-05T04:30:25;32.60;;;27.85;;
13455;SDS011;6800;50.940;6.940;2022-08-05T04:34:25;30.60;;;27.30;;
13455;SDS011;6800;50.940;6.940;2022-08-05T04:38:25;31.75;;;27.80;;
13455;SDS011;6800;50.940;6.940;2022-08-05T04:42:26;32.08;;;28.80;;
13455;SDS011;6800;50.940;6.940;2022-08-05T04:46:26;31.65;;;28.20;;
13455;SDS011;6800;50.940;6.940;2022-08-05T04:50:26;41.20;;;32.25;;
13455;SDS011;6800;50.940;6.940;2022-08-05T04:54:26;35.33;;;30.45;;
13455;SDS011;6800;50.940;6.940;2022-08-05T04:58:27;32.63;;;28.92;;
13455;SDS011;6800;50.940;6.940;2022-08-05T05:02:27;32.30;;;28.75;;
13455;SDS011;6800;50.940;6.940;2022-08-05T05:06:27;37.67;;;29.45;;
13455;SDS011;6800;50.940;6.940;2022-08-05T05:10:28;33.50;;;29.90;;
13455;SDS011;6800;50.940;6.940;2022-08-05T05:14:30;38.88;;;34.92;;
13455;SDS011;6800;50.940;6.940;2022-08-05T05:18:30;40.38;;;36.13;;
13455;SDS011;6800;50.940;6.940;2022-08-05T05:22:30;43.55;;;38.85;;
13455;SDS011;6800;50.940;6.940;2022-08-05T05:26:31;43.00;;;38.45;;
13455;SDS011;6800;50.940;6.940;2022-08-05T05:30:31;44.28;;;39.38;;
13455;SDS011;6800;50.940;6.940;2022-08-05T05:34:31;44.85;;;40.05;;
13455;SDS011;6800;50.940;6.940;2022-08-05T05:38:32;48.65;;;42.95;;
13455;SDS011;6800;50.940;6.940;2022-08-05T05:42:32;46.10;;;40.95;;
13455;SDS011;6800;50.940;6.940;2022-08-05T05:46:32;45.00;;;40.03;;
13455;SDS011;6800;50.940;6.940;2022-08-05T05:50:33;47.53;;;42.22;;
13455;SDS011;6800;50.940;6.940;2022-08-05T05:54:35;49.47;;;43.20;;
13455;SDS011;6800;50.940;6.940;2022-08-05T05:58:35;49.42;;;42.75;;
13455;SDS011;6800;50.940;6.940;2022-08-05T06:02:35;46.30;;;40.17;;
13455;SDS011;6800;50.940;6.940;2022-08-05T06:06:36;46.97;;;40.88;;
13455;SDS011;6800;50.940;6.940;2022-08-05T06:10:37;47.10;;;40.95;;
13455;SDS011;6800;50.940;6.940;2022-08-05T06:14:37;49.38;;;42.80;;
13455;SDS011;6800;50.940;6.940;2022-08-05T06:18:37;49.10;;;41.95;;
13455;SDS011;6800;50.940;6.940;2022-08-05T06:22:37;51.33;;;42.80;;
13455;SDS011;6800;50.940;6.940;2022-08-05T06:26:41;46.67;;;40.40;;
13455;SDS011;6800;50.940;6.940;2022-08-05T06:30:42;47.92;;;39.78;;
13455;SDS011;6800;50.940;6.940;2022-08-05T06:34:42;47.60;;;38.70;;
13455;SDS011;6800;50.940;6.940;2022-08-05T06:38:43;45.92;;;40.05;;
13455;SDS011;6800;50.940;6.940;2022-08-05T06:42:43;45.03;;;39.17;;
13455;SDS011;6800;50.940;6.940;2022-08-05T06:46:44;51.88;;;42.60;;
13455;SDS011;6800;50.940;6.940;2022-08-05T06:50:44;53.90;;;43.25;;
13455;SDS011;6800;50.940;6.940;2022-08-05T06:54:44;51.05;;;42.45;;
13455;SDS011;6800;50.940;6.940;2022-08-05T06:58:45;56.95;;;44.42;;
13455;SDS011;6800;50.940;6.940;2022-08-05T07:02:46;56.17;;;43.17;;
13455;SDS011;6800;50.940;6.940;2022-08-05T07:06:46;54.22;;;43.00;;
13455;SDS011;6800;50.940;6.940;2022-08-05T07:10:47;59.88;;;46.00;;
13455;SDS011;6800;50.940;6.940;2022-08-05T07:14:48;60.47;;;46.00;;
13455;SDS011;6800;50.940;6.940;2022-08-05T07:19:06;54.47;;;42.20;;
13455;SDS011;6800;50.940;6.940;2022-08-05T07:23:07;49.50;;;40.83;;
13455;SDS011;6800;50.940;6.940;2022-08-05T07:27:07;44.92;;;37.60;;
13455;SDS011;6800;50.940;6.940;2022-08-05T07:31:07;48.25;;;40.80;;
13455;SDS011;6800;50.940;6.940;2022-08-05T07:35:08;47.13;;;40.38;;
13455;SDS011;6800;50.940;6.940;2022-08-05T07:39:09;53.78;;;43.72;;
13455;SDS011;6800;50.940;6.940;2022-08-05T07:43:10;53.78;;;43.55;;
13455;SDS011;6800;50.940;6.940;2022-08-05T07:47:12;49.28;;;43.88;;
13455;SDS011;6800;50.940;6.940;2022-08-05T07:51:13;56.13;;;45.40;;
13455;SDS011;6800;50.940;6.940;2022-08-05T07:55:14;54.72;;;45.55;;
13455;SDS011;6800;50.940;6.940;2022-08-05T07:59:15;62.90;;;49.28;;
13455;SDS011;6800;50.940;6.940;2022-08-05T08:03:15;63.75;;;53.08;;
13455;SDS011;6800;50.940;6.940;2022-08-05T08:07:17;65.18;;;52.97;;
13455;SDS011;6800;50.940;6.940;2022-08-05T08:11:17;49.40;;;42.63;;
13455;SDS011;6800;50.940;6.940;2022-08-05T08:15:18;47.13;;;41.28;;
13455;SDS011;6800;50.940;6.940;2022-08-05T08:19:18;51.58;;;45.05;;
13455;SDS011;6800;50.940;6.940;2022-08-05T08:23:18;57.00;;;50.95;;
13455;SDS011;6800;50.940;6.940;2022-08-05T08:27:18;57.33;;;50.53;;
13455;SDS011;6800;50.940;6.940;2022-08-05T08:31:19;57.92;;;51.67;;
13455;SDS011;6800;50.940;6.940;2022-08-05T08:35:19;56.88;;;50.88;;
13455;SDS011;6800;50.940;6.940;2022-08-05T08:39:20;57.30;;;51.30;;
13455;SDS011;6800;50.940;6.940;2022-08-05T08:43:22;54.92;;;49.03;;
13455;SDS011;6800;50.940;6.940;2022-08-05T08:47:24;50.50;;;45.20;;
13455;SDS011;6800;50.940;6.940;2022-08-05T08:51:26;54.72;;;48.88;;
13455;SDS011;6800;50.940;6.940;2022-08-05T08:55:26;52.78;;;47.33;;
13455;SDS011;6800;50.940;6.940;2022-08-05T08:59:27;52.28;;;46.55;;
13455;SDS011;6800;50.940;6.940;2022-08-05T09:03:28;50.50;;;45.28;;
13455;SDS011;6800;50.940;6.940;2022-08-05T09:07:30;48.83;;;43.83;;
13455;SDS011;6800;50.940;6.940;2022-08-05T09:11:34;43.55;;;39.13;;
13455;SDS011;6800;50.940;6.940;2022-08-05T09:15:36;39.55;;;35.65;;
13455;SDS011;6800;50.940;6.940;2022-08-05T09:19:37;34.15;;;30.25;;
13455;SDS011;6800;50.940;6.940;2022-08-05T09:23:37;30.27;;;27.27;;
13455;SDS011;6800;50.940;6.940;2022-08-05T09:27:39;26.85;;;24.25;;
13455;SDS011;6800;50.940;6.940;2022-08-05T09:31:39;25.60;;;23.00;;
13455;SDS011;6800;50.940;6.940;2022-08-05T09:40:55;21.13;;;18.90;;
13455;SDS011;6800;50.940;6.940;2022-08-05T09:48:43;17.13;;;15.57;;
13455;SDS011;6800;50.940;6.940;2022-08-05T09:52:44;16.88;;;15.48;;
13455;SDS011;6800;50.940;6.940;2022-08-05T09:56:47;21.52;;;17.15;;
13455;SDS011;6800;50.940;6.940;2022-08-05T10:00:55;17.23;;;15.65;;
13455;SDS011;6800;50.940;6.940;2022-08-05T10:05:06;18.05;;;16.63;;
13455;SDS011;6800;50.940;6.940;2022-08-05T10:09:17;20.80;;;17.95;;
13455;SDS011;6800;50.940;6.940;2022-08-05T10:13:31;18.23;;;16.52;;
13455;SDS011;6800;50.940;6.940;2022-08-05T10:17:34;20.13;;;16.55;;
13455;SDS011;6800;50.940;6.940;2022-08-05T10:21:35;18.27;;;16.50;;
13455;SDS011;6800;50.940;6.940;2022-08-05T10:25:35;16.60;;;14.95;;
13455;SDS011;6800;50.940;6.940;2022-08-05T10:29:35;15.10;;;13.63;;
13455;SDS011;6800;50.940;6.940;2022-08-05T10:33:36;14.05;;;12.73;;
13455;SDS011;6800;50.940;6.940;2022-08-05T10:37:37;12.93;;;11.70;;
13455;SDS011;6800;50.940;6.940;2022-08-05T10:46:03;12.18;;;10.80;;
13455;SDS011;6800;50.940;6.940;2022-08-05T10:50:06;9.77;;;8.77;;
13455;SDS011;6800;50.940;6.940;2022-08-05T10:54:12;9.10;;;8.02;;
13455;SDS011;6800;50.940;6.940;2022-08-05T10:58:13;9.90;;;8.13;;
13455;SDS011;6800;50.940;6.940;2022-08-05T11:02:14;8.00;;;7.18;;
13455;SDS011;6800;50.940;6.940;2022-08-05T11:06:14;7.60;;;6.45;;
13455;SDS011;6800;50.940;6.940;2022-08-05T11:10:22;7.85;;;5.18;;
13455;SDS011;6800;50.940;6.940;2022-08-05T11:18:29;8.43;;;4.95;;
13455;SDS011;6800;50.940;6.940;2022-08-05T11:22:39;5.93;;;3.65;;
13455;SDS011;6800;50.940;6.940;2022-08-05T11:27:18;6.30;;;3.95;;
13455;SDS011;6800;50.940;6.940;2022-08-05T11:31:31;6.50;;;4.45;;
13455;SDS011;6800;50.940;6.940;2022-08-05T11:35:51;4.72;;;4.20;;
13455;SDS011;6800;50.940;6.940;2022-08-05T11:39:55;5.57;;;4.13;;
13455;SDS011;6800;50.940;6.940;2022-08-05T11:43:57;5.28;;;4.07;;
13455;SDS011;6800;50.940;6.940;2022-08-05T11:48:05;5.10;;;3.88;;
13455;SDS011;6800;50.940;6.940;2022-08-05T11:52:07;3.50;;;3.17;;
13455;SDS011;6800;50.940;6.940;2022-08-05T11:56:07;3.22;;;2.70;;
13455;SDS011;6800;50.940;6.940;2022-08-05T12:00:23;3.97;;;2.80;;
13455;SDS011;6800;50.940;6.940;2022-08-05T12:04:35;5.18;;;3.00;;
13455;SDS011;6800;50.940;6.940;2022-08-05T12:08:38;6.47;;;3.10;;
13455;SDS011;6800;50.940;6.940;2022-08-05T12:12:41;4.32;;;2.88;;
13455;SDS011;6800;50.940;6.940;2022-08-05T12:16:42;5.07;;;3.00;;
13455;SDS011;6800;50.940;6.940;2022-08-05T12:20:43;6.05;;;2.92;;
13455;SDS011;6800;50.940;6.940;2022-08-05T12:24:49;3.80;;;2.78;;
13455;SDS011;6800;50.940;6.940;2022-08-05T12:28:50;6.03;;;3.05;;
13455;SDS011;6800;50.940;6.940;2022-08-05T12:32:52;4.30;;;2.70;;
13455;SDS011;6800;50.940;6.940;2022-08-05T12:36:55;4.53;;;3.03;;
13455;SDS011;6800;50.940;6.940;2022-08-05T12:40:58;3.22;;;2.83;;
13455;SDS011;6800;50.940;6.940;2022-08-05T12:45:03;4.32;;;3.00;;
13455;SDS011;6800;50.940;6.940;2022-08-05T12:49:06;4.43;;;2.95;;
13455;SDS011;6800;50.940;6.940;2022-08-05T12:53:15;5.65;;;3.42;;
13455;SDS011;6800;50.940;6.940;2022-08-05T12:57:16;5.13;;;3.38;;
13455;SDS011;6800;50.940;6.940;2022-08-05T13:01:17;3.88;;;3.53;;
13455;SDS011;6800;50.940;6.940;2022-08-05T13:05:22;4.25;;;3.50;;
13455;SDS011;6800;50.940;6.940;2022-08-05T13:09:24;4.63;;;4.22;;
13455;SDS011;6800;50.940;6.940;2022-08-05T13:13:25;4.22;;;3.78;;
13455;SDS011;6800;50.940;6.940;2022-08-05T13:17:27;4.88;;;3.65;;
13455;SDS011;6800;50.940;6.940;2022-08-05T13:21:29;6.20;;;4.78;;
13455;SDS011;6800;50.940;6.940;2022-08-05T13:25:30;7.13;;;4.10;;
13455;SDS011;6800;50.940;6.940;2022-08-05T13:29:30;4.22;;;3.90;;
13455;SDS011;6800;50.940;6.940;2022-08-05T13:33:30;5.25;;;3.60;;
13455;SDS011;6800;50.940;6.940;2022-08-05T13:37:31;6.22;;;4.60;;
13455;SDS011;6800;50.940;6.940;2022-08-05T13:41:31;5.80;;;5.22;;
13455;SDS011;6800;50.940;6.940;2022-08-05T13:45:32;5.75;;;4.65;;
13455;SDS011;6800;50.940;6.940;2022-08-05T13:49:32;5.25;;;4.75;;
13455;SDS011;6800;50.940;6.940;2022-08-05T13:53:32;6.22;;;4.70;;
13455;SDS011;6800;50.940;6.940;2022-08-05T13:57:34;5.15;;;4.60;;
13455;SDS011;6800;50.940;6.940;2022-08-05T14:01:34;5.10;;;4.60;;
13455;SDS011;6800;50.940;6.940;2022-08-05T14:05:34;4.93;;;4.43;;
13455;SDS011;6800;50.940;6.940;2022-08-05T14:09:35;5.00;;;4.53;;
13455;SDS011;6800;50.940;6.940;2022-08-05T14:13:36;6.25;;;4.30;;
13455;SDS011;6800;50.940;6.940;2022-08-05T14:17:37;5.38;;;4.88;;
13455;SDS011;6800;50.940;6.940;2022-08-05T14:21:38;6.55;;;4.72;;
13455;SDS011;6800;50.940;6.940;2022-08-05T14:25:38;6.00;;;4.00;;
13455;SDS011;6800;50.940;6.940;2022-08-05T14:29:38;5.67;;;3.70;;
13455;SDS011;6800;50.940;6.940;2022-08-05T14:33:39;6.22;;;4.00;;
13455;SDS011;6800;50.940;6.940;2022-08-05T14:37:39;7.53;;;3.85;;
13455;SDS011;6800;50.940;6.940;2022-08-05T14:41:39;6.57;;;3.85;;
13455;SDS011;6800;50.940;6.940;2022-08-05T14:45:40;3.17;;;2.72;;
13455;SDS011;6800;50.940;6.940;2022-08-05T14:49:40;4.18;;;2.45;;
13455;SDS011;6800;50.940;6.940;2022-08-05T14:53:40;2.67;;;1.75;;
13455;SDS011;6800;50.940;6.940;2022-08-05T14:57:41;1.63;;;1.52;;
13455;SDS011;6800;50.940;6.940;2022-08-05T15:01:41;2.53;;;1.60;;
13455;SDS011;6800;50.940;6.940;2022-08-05T15:05:41;3.03;;;1.77;;
13455;SDS011;6800;50.940;6.940;2022-08-05T15:09:42;4.75;;;1.77;;
13455;SDS011;6800;50.940;6.940;2022-08-05T15:13:42;2.95;;;1.50;;
13455;SDS011;6800;50.940;6.940;2022-08-05T15:17:42;3.45;;;1.40;;
13455;SDS011;6800;50.940;6.940;2022-08-05T15:21:43;2.92;;;1.50;;
13455;SDS011;6800;50.940;6.940;2022-08-05T15:25:43;4.32;;;1.80;;
13455;SDS011;6800;50.940;6.940;2022-08-05T15:29:43;2.58;;;1.50;;
13455;SDS011;6800;50.940;6.940;2022-08-05T15:33:44;2.40;;;1.45;;
13455;SDS011;6800;50.940;6.940;2022-08-05T15:37:44;5.50;;;2.42;;
13455;SDS011;6800;50.940;6.940;2022-08-05T15:41:44;2.55;;;1.58;;
13455;SDS011;6800;50.940;6.940;2022-08-05T15:45:45;1.90;;;1.60;;
13455;SDS011;6800;50.940;6.940;2022-08-05T15:49:47;3.30;;;1.80;;
13455;SDS011;6800;50.940;6.940;2022-08-05T15:53:48;3.92;;;2.10;;
13455;SDS011;6800;50.940;6.940;2022-08-05T15:57:51;4.05;;;1.98;;
13455;SDS011;6800;50.940;6.940;2022-08-05T16:01:51;2.42;;;2.00;;
13455;SDS011;6800;50.940;6.940;2022-08-05T16:05:51;2.95;;;1.80;;
13455;SDS011;6800;50.940;6.940;2022-08-05T16:09:51;4.68;;;2.00;;
13455;SDS011;6800;50.940;6.940;2022-08-05T16:13:54;3.75;;;2.08;;
13455;SDS011;6800;50.940;6.940;2022-08-05T16:17:54;2.30;;;1.90;;
13455;SDS011;6800;50.940;6.940;2022-08-05T16:21:55;2.95;;;1.85;;
13455;SDS011;6800;50.940;6.940;2022-08-05T16:26:28;2.67;;;1.92;;
13455;SDS011;6800;50.940;6.940;2022-08-05T16:30:22;2.63;;;2.15;;
13455;SDS011;6800;50.940;6.940;2022-08-05T16:34:22;4.03;;;2.20;;
13455;SDS011;6800;50.940;6.940;2022-08-05T16:38:24;4.18;;;2.10;;
13455;SDS011;6800;50.940;6.940;2022-08-05T16:42:25;3.15;;;2.20;;
13455;SDS011;6800;50.940;6.940;2022-08-05T16:46:25;2.70;;;1.98;;
13455;SDS011;6800;50.940;6.940;2022-08-05T16:50:25;4.00;;;1.80;;
13455;SDS011;6800;50.940;6.940;2022-08-05T16:54:26;4.60;;;1.95;;
13455;SDS011;6800;50.940;6.940;2022-08-05T16:58:26;2.80;;;1.40;;
13455;SDS011;6800;50.940;6.940;2022-08-05T17:02:26;6.00;;;2.00;;
13455;SDS011;6800;50.940;6.940;2022-08-05T17:06:26;4.00;;;1.80;;
13455;SDS011;6800;50.940;6.940;2022-08-05T17:10:27;2.78;;;1.80;;
13455;SDS011;6800;50.940;6.940;2022-08-05T17:14:28;3.15;;;1.42;;
13455;SDS011;6800;50.940;6.940;2022-08-05T17:18:30;2.30;;;1.55;;
13455;SDS011;6800;50.940;6.940;2022-08-05T17:22:30;2.25;;;1.60;;
13455;SDS011;6800;50.940;6.940;2022-08-05T17:26:31;1.52;;;1.42;;
13455;SDS011;6800;50.940;6.940;2022-08-05T17:30:31;2.33;;;1.20;;
13455;SDS011;6800;50.940;6.940;2022-08-05T17:34:31;1.60;;;1.50;;
13455;SDS011;6800;50.940;6.940;2022-08-05T17:38:32;3.65;;;1.55;;
13455;SDS011;6800;50.940;6.940;2022-08-05T17:42:32;2.20;;;1.50;;
13455;SDS011;6800;50.940;6.940;2022-08-05T17:46:32;2.38;;;1.60;;
13455;SDS011;6800;50.940;6.940;2022-08-05T17:50:33;2.30;;;1.25;;
13455;SDS011;6800;50.940;6.940;2022-08-05T17:54:33;3.13;;;1.80;;
13455;SDS011;6800;50.940;6.940;2022-08-05T17:58:36;4.53;;;1.42;;
13455;SDS011;6800;50.940;6.940;2022-08-05T18:02:38;2.88;;;1.67;;
13455;SDS011;6800;50.940;6.940;2022-08-05T18:06:38;1.73;;;1.20;;
13455;SDS011;6800;50.940;6.940;2022-08-05T18:10:39;4.72;;;1.65;;
13455;SDS011;6800;50.940;6.940;2022-08-05T18:14:39;5.00;;;1.42;;
13455;SDS011;6800;50.940;6.940;2022-08-05T18:18:39;3.72;;;2.10;;
13455;SDS011;6800;50.940;6.940;2022-08-05T18:22:40;2.90;;;1.30;;
13455;SDS011;6800;50.940;6.940;2022-08-05T18:26:40;3.53;;;1.33;;
13455;SDS011;6800;50.940;6.940;2022-08-05T18:30:41;1.40;;;1.30;;
13455;SDS011;6800;50.940;6.940;2022-08-05T18:34:41;2.40;;;1.40;;
13455;SDS011;6800;50.940;6.940;2022-08-05T18:38:41;2.67;;;1.35;;
13455;SDS011;6800;50.940;6.940;2022-08-05T18:42:42;4.00;;;1.77;;
13455;SDS011;6800;50.940;6.940;2022-08-05T18:46:42;2.92;;;1.13;;
13455;SDS011;6800;50.940;6.940;2022-08-05T18:50:42;3.53;;;1.30;;
13455;SDS011;6800;50.940;6.940;2022-08-05T18:55:02;3.13;;;1.50;;
13455;SDS011;6800;50.940;6.940;2022-08-05T18:59:04;2.08;;;1.50;;
13455;SDS011;6800;50.940;6.940;2022-08-05T19:03:04;2.78;;;1.42;;
13455;SDS011;6800;50.940;6.940;2022-08-05T19:07:05;3.38;;;1.50;;
13455;SDS011;6800;50.940;6.940;2022-08-05T19:11:05;2.40;;;1.38;;
13455;SDS011;6800;50.940;6.940;2022-08-05T19:15:05;2.15;;;1.63;;
13455;SDS011;6800;50.940;6.940;2022-08-05T19:19:06;2.00;;;1.17;;
13455;SDS011;6800;50.940;6.940;2022-08-05T19:23:07;1.67;;;1.20;;
13455;SDS011;6800;50.940;6.940;2022-08-05T19:27:07;1.50;;;1.40;;
13455;SDS011;6800;50.940;6.940;2022-08-05T19:31:08;1.95;;;1.38;;
13455;SDS011;6800;50.940;6.940;2022-08-05T19:35:10;2.70;;;1.75;;
13455;SDS011;6800;50.940;6.940;2022-08-05T19:39:10;2.13;;;1.60;;
13455;SDS011;6800;50.940;6.940;2022-08-05T19:43:11;1.67;;;1.50;;
13455;SDS011;6800;50.940;6.940;2022-08-05T19:47:11;5.13;;;1.52;;
13455;SDS011;6800;50.940;6.940;2022-08-05T19:51:11;2.55;;;1.77;;
13455;SDS011;6800;50.940;6.940;2022-08-05T19:55:12;2.67;;;1.90;;
13455;SDS011;6800;50.940;6.940;2022-08-05T19:59:12;2.60;;;1.90;;
13455;SDS011;6800;50.940;6.940;2022-08-05T20:03:12;3.67;;;1.80;;
13455;SDS011;6800;50.940;6.940;2022-08-05T20:07:13;2.55;;;1.90;;
13455;SDS011;6800;50.940;6.940;2022-08-05T20:11:13;3.28;;;2.22;;
13455;SDS011;6800;50.940;6.940;2022-08-05T20:15:14;3.85;;;1.90;;
13455;SDS011;6800;50.940;6.940;2022-08-05T20:19:15;2.00;;;1.80;;
13455;SDS011;6800;50.940;6.940;2022-08-05T20:23:15;2.28;;;1.60;;
13455;SDS011;6800;50.940;6.940;2022-08-05T20:27:16;3.90;;;2.00;;
13455;SDS011;6800;50.940;6.940;2022-08-05T20:31:17;3.08;;;1.67;;
13455;SDS011;6800;50.940;6.940;2022-08-05T20:35:18;3.30;;;1.50;;
13455;SDS011;6800;50.940;6.940;2022-08-05T20:39:19;2.58;;;1.50;;
13455;SDS011;6800;50.940;6.940;2022-08-05T20:43:19;2.55;;;1.40;;
13455;SDS011;6800;50.940;6.940;2022-08-05T20:47:19;6.20;;;1.65;;
13455;SDS011;6800;50.940;6.940;2022-08-05T20:51:20;4.20;;;2.10;;
13455;SDS011;6800;50.940;6.940;2022-08-05T20:55:20;5.82;;;2.67;;
13455;SDS011;6800;50.940;6.940;2022-08-05T20:59:20;2.92;;;1.75;;
13455;SDS011;6800;50.940;6.940;2022-08-05T21:03:21;4.32;;;1.90;;
13455;SDS011;6800;50.940;6.940;2022-08-05T21:07:21;4.60;;;2.00;;
13455;SDS011;6800;50.940;6.940;2022-08-05T21:11:21;3.17;;;2.83;;
13455;SDS011;6800;50.940;6.940;2022-08-05T21:15:22;4.97;;;1.85;;
13455;SDS011;6800;50.940;6.940;2022-08-05T21:19:22;5.38;;;2.42;;
13455;SDS011;6800;50.940;6.940;2022-08-05T21:23:22;2.95;;;2.38;;
13455;SDS011;6800;50.940;6.940;2022-08-05T21:27:23;3.90;;;1.80;;
13455;SDS011;6800;50.940;6.940;2022-08-05T21:31:23;2.70;;;1.85;;
13455;SDS011;6800;50.940;6.940;2022-08-05T21:35:23;2.42;;;2.00;;
13455;SDS011;6800;50.940;6.940;2022-08-05T21:39:24;3.42;;;2.00;;
13455;SDS011;6800;50.940;6.940;2022-08-05T21:43:25;2.90;;;1.70;;
13455;SDS011;6800;50.940;6.940;2022-08-05T21:47:25;3.25;;;2.60;;
13455;SDS011;6800;50.940;6.940;2022-08-05T21:51:26;3.10;;;2.35;;
13455;SDS011;6800;50.940;6.940;2022-08-05T21:55:27;5.18;;;2.70;;
13455;SDS011;6800;50.940;6.940;2022-08-05T21:59:27;2.58;;;2.05;;
13455;SDS011;6800;50.940;6.940;2022-08-05T22:03:27;4.70;;;3.10;;
13455;SDS011;6800;50.940;6.940;2022-08-05T22:07:28;4.57;;;2.53;;
13455;SDS011;6800;50.940;6.940;2022-08-05T22:11:28;3.72;;;2.42;;
13455;SDS011;6800;50.940;6.940;2022-08-05T22:15:29;6.90;;;2.95;;
13455;SDS011;6800;50.940;6.940;2022-08-05T22:19:29;2.58;;;2.00;;
13455;SDS011;6800;50.940;6.940;2022-08-05T22:23:29;3.13;;;1.92;;
13455;SDS011;6800;50.940;6.940;2022-08-05T22:27:48;5.37;;;2.00;;
13455;SDS011;6800;50.940;6.940;2022-08-05T22:31:50;3.93;;;3.57;;
13455;SDS011;6800;50.940;6.940;2022-08-05T22:35:50;2.50;;;1.80;;
13455;SDS011;6800;50.940;6.940;2022-08-05T22:39:51;4.07;;;3.00;;
13455;SDS011;6800;50.940;6.940;2022-08-05T22:43:51;3.13;;;2.47;;
13455;SDS011;6800;50.940;6.940;2022-08-05T22:47:52;2.77;;;2.00;;
13455;SDS011;6800;50.940;6.940;2022-08-05T22:51:53;3.53;;;3.20;;
13455;SDS011;6800;50.940;6.940;2022-08-05T22:55:53;3.30;;;2.50;;
13455;SDS011;6800;50.940;6.940;2022-08-05T22:59:54;3.00;;;1.30;;
13455;SDS011;6800;50.940;6.940;2022-08-05T23:03:54;4.87;;;3.23;;
13455;SDS011;6800;50.940;6.940;2022-08-05T23:07:55;2.77;;;1.40;;
13455;SDS011;6800;50.940;6.940;2022-08-05T23:11:55;2.80;;;1.77;;
13455;SDS011;6800;50.940;6.940;2022-08-05T23:15:55;3.17;;;1.60;;
13455;SDS011;6800;50.940;6.940;2022-08-05T23:19:56;3.77;;;1.73;;
13455;SDS011;6800;50.940;6.940;2022-08-05T23:23:57;3.97;;;1.80;;
13455;SDS011;6800;50.940;6.940;2022-08-05T23:27:57;3.23;;;1.80;;
13455;SDS011;6800;50.940;6.940;2022-08-05T23:31:58;3.67;;;2.10;;
13455;SDS011;6800;50.940;6.940;2022-08-05T23:35:58;6.23;;;3.63;;
13455;SDS011;6800;50.940;6.940;2022-08-05T23:39:59;2.37;;;1.73;;
13455;SDS011;6800;50.940;6.940;2022-08-05T23:43:59;2.37;;;1.50;;
13455;SDS011;6800;50.940;6.940;2022-08-05T23:48:00;4.17;;;1.47;;
13455;SDS011;6800;50.940;6.940;2022-08-05T23:52:00;4.07;;;2.10;;
13455;SDS011;6800;50.940;6.940;2022-08-05T23:56:19;3.97;;;1.87;;
